sensor_id;sensor_type;location;lat;lon;timestamp;temperature;humidity
6841;DHT22;3458;53.678;14.080;2023-02-21T00:02:09;7.90;99.90
6841;DHT22;3458;53.678;14.080;2023-02-21T00:04:53;7.90;99.90
6841;DHT22;3458;53.678;14.080;2023-02-21T00:07:37;7.90;99.90
6841;DHT22;3458;53.678;14.080;2023-02-21T00:10:21;7.90;99.90
6841;DHT22;3458;53.678;14.080;2023-02-21T00:13:06;7.90;99.90
6841;DHT22;3458;53.678;14.080;2023-02-21T00:15:50;7.80;99.90
6841;DHT22;3458;53.678;14.080;2023-02-21T00:18:36;7.80;99.90
6841;DHT22;3458;53.678;14.080;2023-02-21T00:21:20;7.70;99.90
6841;DHT22;3458;53.678;14.080;2023-02-21T00:24:05;7.70;99.90
6841;DHT22;3458;53.678;14.080;2023-02-21T00:26:49;7.70;99.90
6841;DHT22;3458;53.678;14.080;2023-02-21T00:29:34;7.70;99.90
6841;DHT22;3458;53.678;14.080;2023-02-21T00:32:18;7.70;99.90
6841;DHT22;3458;53.678;14.080;2023-02-21T00:35:02;7.70;99.90
6841;DHT22;3458;53.678;14.080;2023-02-21T00:37:50;7.70;99.90
6841;DHT22;3458;53.678;14.080;2023-02-21T00:40:34;7.60;99.90
6841;DHT22;3458;53.678;14.080;2023-02-21T00:43:19;7.60;99.90
6841;DHT22;3458;53.678;14.080;2023-02-21T00:46:03;7.60;99.90
6841;DHT22;3458;53.678;14.080;2023-02-21T00:48:47;7.60;99.90
6841;DHT22;3458;53.678;14.080;2023-02-21T00:51:32;7.50;99.90
6841;DHT22;3458;53.678;14.080;2023-02-21T00:54:16;7.50;99.90
6841;DHT22;3458;53.678;14.080;2023-02-21T00:57:00;7.50;99.90
6841;DHT22;3458;53.678;14.080;2023-02-21T00:59:45;7.50;99.90
6841;DHT22;3458;53.678;14.080;2023-02-21T01:02:29;7.40;99.90
6841;DHT22;3458;53.678;14.080;2023-02-21T01:05:13;7.40;99.90
6841;DHT22;3458;53.678;14.080;2023-02-21T01:07:57;7.40;99.90
6841;DHT22;3458;53.678;14.080;2023-02-21T01:10:41;7.40;99.90
6841;DHT22;3458;53.678;14.080;2023-02-21T01:13:26;7.40;99.90
6841;DHT22;3458;53.678;14.080;2023-02-21T01:16:10;7.40;99.90
6841;DHT22;3458;53.678;14.080;2023-02-21T01:18:54;7.40;99.90
6841;DHT22;3458;53.678;14.080;2023-02-21T01:21:38;7.40;99.90
6841;DHT22;3458;53.678;14.080;2023-02-21T01:24:23;7.40;99.90
6841;DHT22;3458;53.678;14.080;2023-02-21T01:27:07;7.40;99.90
6841;DHT22;3458;53.678;14.080;2023-02-21T01:29:51;7.40;99.90
6841;DHT22;3458;53.678;14.080;2023-02-21T01:32:35;7.40;99.90
6841;DHT22;3458;53.678;14.080;2023-02-21T01:35:20;7.30;99.90
6841;DHT22;3458;53.678;14.080;2023-02-21T01:38:04;7.30;99.90
6841;DHT22;3458;53.678;14.080;2023-02-21T01:40:48;7.30;99.90
6841;DHT22;3458;53.678;14.080;2023-02-21T01:43:32;7.30;99.90
6841;DHT22;3458;53.678;14.080;2023-02-21T01:46:18;7.30;99.90
6841;DHT22;3458;53.678;14.080;2023-02-21T01:49:12;7.30;99.90
6841;DHT22;3458;53.678;14.080;2023-02-21T01:51:59;7.30;99.90
6841;DHT22;3458;53.678;14.080;2023-02-21T01:54:48;7.30;99.90
6841;DHT22;3458;53.678;14.080;2023-02-21T01:57:34;7.30;99.90
6841;DHT22;3458;53.678;14.080;2023-02-21T02:00:19;7.30;99.90
6841;DHT22;3458;53.678;14.080;2023-02-21T02:03:09;7.30;99.90
6841;DHT22;3458;53.678;14.080;2023-02-21T02:05:59;7.30;99.90
6841;DHT22;3458;53.678;14.080;2023-02-21T02:08:44;7.30;99.90
6841;DHT22;3458;53.678;14.080;2023-02-21T02:11:45;7.40;99.90
6841;DHT22;3458;53.678;14.080;2023-02-21T02:14:50;7.30;99.90
6841;DHT22;3458;53.678;14.080;2023-02-21T02:17:44;7.30;99.90
6841;DHT22;3458;53.678;14.080;2023-02-21T02:26:47;7.30;99.90
6841;DHT22;3458;53.678;14.080;2023-02-21T02:35:01;7.30;99.90
6841;DHT22;3458;53.678;14.080;2023-02-21T02:43:16;7.40;99.90
6841;DHT22;3458;53.678;14.080;2023-02-21T02:45:51;7.40;99.90
6841;DHT22;3458;53.678;14.080;2023-02-21T02:50:54;7.50;99.90
6841;DHT22;3458;53.678;14.080;2023-02-21T02:53:24;7.50;99.90
6841;DHT22;3458;53.678;14.080;2023-02-21T02:58:52;7.50;99.90
6841;DHT22;3458;53.678;14.080;2023-02-21T03:12:28;7.50;99.90
6841;DHT22;3458;53.678;14.080;2023-02-21T03:17:43;7.50;99.90
6841;DHT22;3458;53.678;14.080;2023-02-21T03:20:11;7.50;99.90
6841;DHT22;3458;53.678;14.080;2023-02-21T03:22:39;7.50;99.90
6841;DHT22;3458;53.678;14.080;2023-02-21T03:25:07;7.50;99.90
6841;DHT22;3458;53.678;14.080;2023-02-21T03:27:34;7.50;99.90
6841;DHT22;3458;53.678;14.080;2023-02-21T03:30:03;7.50;99.90
6841;DHT22;3458;53.678;14.080;2023-02-21T03:32:45;7.50;99.90
6841;DHT22;3458;53.678;14.080;2023-02-21T03:35:12;7.50;99.90
6841;DHT22;3458;53.678;14.080;2023-02-21T03:37:46;7.50;99.90
6841;DHT22;3458;53.678;14.080;2023-02-21T03:40:18;7.50;99.90
6841;DHT22;3458;53.678;14.080;2023-02-21T03:42:44;7.40;99.90
6841;DHT22;3458;53.678;14.080;2023-02-21T03:45:10;7.40;99.90
6841;DHT22;3458;53.678;14.080;2023-02-21T03:47:35;7.40;99.90
6841;DHT22;3458;53.678;14.080;2023-02-21T03:50:01;7.40;99.90
6841;DHT22;3458;53.678;14.080;2023-02-21T03:52:29;7.40;99.90
6841;DHT22;3458;53.678;14.080;2023-02-21T03:54:55;7.30;99.90
6841;DHT22;3458;53.678;14.080;2023-02-21T03:57:20;7.40;99.90
6841;DHT22;3458;53.678;14.080;2023-02-21T03:59:46;7.40;99.90
6841;DHT22;3458;53.678;14.080;2023-02-21T04:02:11;7.40;99.90
6841;DHT22;3458;53.678;14.080;2023-02-21T04:04:37;7.40;99.90
6841;DHT22;3458;53.678;14.080;2023-02-21T04:07:02;7.30;99.90
6841;DHT22;3458;53.678;14.080;2023-02-21T04:09:28;7.30;99.90
6841;DHT22;3458;53.678;14.080;2023-02-21T04:11:53;7.20;99.90
6841;DHT22;3458;53.678;14.080;2023-02-21T04:14:19;7.20;99.90
6841;DHT22;3458;53.678;14.080;2023-02-21T04:16:44;7.20;99.90
6841;DHT22;3458;53.678;14.080;2023-02-21T04:19:10;7.20;99.90
6841;DHT22;3458;53.678;14.080;2023-02-21T04:21:35;7.10;99.90
6841;DHT22;3458;53.678;14.080;2023-02-21T04:24:01;7.10;99.90
6841;DHT22;3458;53.678;14.080;2023-02-21T04:26:26;7.10;99.90
6841;DHT22;3458;53.678;14.080;2023-02-21T04:28:54;7.10;99.90
6841;DHT22;3458;53.678;14.080;2023-02-21T04:31:20;7.10;99.90
6841;DHT22;3458;53.678;14.080;2023-02-21T04:33:46;7.00;99.90
6841;DHT22;3458;53.678;14.080;2023-02-21T04:36:12;7.00;99.90
6841;DHT22;3458;53.678;14.080;2023-02-21T04:38:37;7.00;99.90
6841;DHT22;3458;53.678;14.080;2023-02-21T04:41:03;7.00;99.90
6841;DHT22;3458;53.678;14.080;2023-02-21T04:43:29;7.00;99.90
6841;DHT22;3458;53.678;14.080;2023-02-21T04:45:55;7.00;99.90
6841;DHT22;3458;53.678;14.080;2023-02-21T04:48:21;6.90;99.90
6841;DHT22;3458;53.678;14.080;2023-02-21T04:50:46;6.90;99.90
6841;DHT22;3458;53.678;14.080;2023-02-21T04:53:12;6.90;99.90
6841;DHT22;3458;53.678;14.080;2023-02-21T04:55:37;6.90;99.90
6841;DHT22;3458;53.678;14.080;2023-02-21T04:58:03;6.90;99.90
6841;DHT22;3458;53.678;14.080;2023-02-21T05:00:29;6.90;99.90
6841;DHT22;3458;53.678;14.080;2023-02-21T05:02:55;7.00;99.90
6841;DHT22;3458;53.678;14.080;2023-02-21T05:05:20;7.00;99.90
6841;DHT22;3458;53.678;14.080;2023-02-21T05:07:46;7.00;99.90
6841;DHT22;3458;53.678;14.080;2023-02-21T05:10:11;7.00;99.90
6841;DHT22;3458;53.678;14.080;2023-02-21T05:12:37;7.10;99.90
6841;DHT22;3458;53.678;14.080;2023-02-21T05:15:06;7.10;99.90
6841;DHT22;3458;53.678;14.080;2023-02-21T05:17:32;7.10;99.90
6841;DHT22;3458;53.678;14.080;2023-02-21T05:19:57;7.10;99.90
6841;DHT22;3458;53.678;14.080;2023-02-21T05:22:23;7.10;99.90
6841;DHT22;3458;53.678;14.080;2023-02-21T05:24:48;7.10;99.90
6841;DHT22;3458;53.678;14.080;2023-02-21T05:27:16;7.10;99.90
6841;DHT22;3458;53.678;14.080;2023-02-21T05:29:48;7.20;99.90
6841;DHT22;3458;53.678;14.080;2023-02-21T05:32:15;7.20;99.90
6841;DHT22;3458;53.678;14.080;2023-02-21T05:34:41;7.20;99.90
6841;DHT22;3458;53.678;14.080;2023-02-21T05:37:09;7.20;99.90
6841;DHT22;3458;53.678;14.080;2023-02-21T05:39:35;7.20;99.90
6841;DHT22;3458;53.678;14.080;2023-02-21T05:42:00;7.20;99.90
6841;DHT22;3458;53.678;14.080;2023-02-21T05:44:26;7.20;99.90
6841;DHT22;3458;53.678;14.080;2023-02-21T05:46:51;7.20;99.90
6841;DHT22;3458;53.678;14.080;2023-02-21T05:49:17;7.20;99.90
6841;DHT22;3458;53.678;14.080;2023-02-21T05:51:43;7.20;99.90
6841;DHT22;3458;53.678;14.080;2023-02-21T05:54:13;7.30;99.90
6841;DHT22;3458;53.678;14.080;2023-02-21T05:56:40;7.30;99.90
6841;DHT22;3458;53.678;14.080;2023-02-21T05:59:07;7.30;99.90
6841;DHT22;3458;53.678;14.080;2023-02-21T06:01:33;7.30;99.90
6841;DHT22;3458;53.678;14.080;2023-02-21T06:03:59;7.30;99.90
6841;DHT22;3458;53.678;14.080;2023-02-21T06:06:24;7.30;99.90
6841;DHT22;3458;53.678;14.080;2023-02-21T06:08:50;7.30;99.90
6841;DHT22;3458;53.678;14.080;2023-02-21T06:11:22;7.20;99.90
6841;DHT22;3458;53.678;14.080;2023-02-21T06:13:52;7.20;99.90
6841;DHT22;3458;53.678;14.080;2023-02-21T06:16:18;7.20;99.90
6841;DHT22;3458;53.678;14.080;2023-02-21T06:18:43;7.20;99.90
6841;DHT22;3458;53.678;14.080;2023-02-21T06:21:09;7.20;99.90
6841;DHT22;3458;53.678;14.080;2023-02-21T06:23:34;7.10;99.90
6841;DHT22;3458;53.678;14.080;2023-02-21T06:26:00;7.10;99.90
6841;DHT22;3458;53.678;14.080;2023-02-21T06:28:29;7.10;99.90
6841;DHT22;3458;53.678;14.080;2023-02-21T06:30:56;7.10;99.90
6841;DHT22;3458;53.678;14.080;2023-02-21T06:33:22;7.10;99.90
6841;DHT22;3458;53.678;14.080;2023-02-21T06:35:48;7.10;99.90
6841;DHT22;3458;53.678;14.080;2023-02-21T06:38:13;7.10;99.90
6841;DHT22;3458;53.678;14.080;2023-02-21T06:40:39;7.00;99.90
6841;DHT22;3458;53.678;14.080;2023-02-21T06:43:04;7.00;99.90
6841;DHT22;3458;53.678;14.080;2023-02-21T06:45:30;7.00;99.90
6841;DHT22;3458;53.678;14.080;2023-02-21T06:47:56;6.90;99.90
6841;DHT22;3458;53.678;14.080;2023-02-21T06:50:21;6.90;99.90
6841;DHT22;3458;53.678;14.080;2023-02-21T06:52:47;6.90;99.90
6841;DHT22;3458;53.678;14.080;2023-02-21T06:55:12;7.00;99.90
6841;DHT22;3458;53.678;14.080;2023-02-21T06:57:38;6.90;99.90
6841;DHT22;3458;53.678;14.080;2023-02-21T07:00:04;7.00;99.90
6841;DHT22;3458;53.678;14.080;2023-02-21T07:02:30;7.00;99.90
6841;DHT22;3458;53.678;14.080;2023-02-21T07:04:55;7.00;99.90
6841;DHT22;3458;53.678;14.080;2023-02-21T07:07:21;6.90;99.90
6841;DHT22;3458;53.678;14.080;2023-02-21T07:09:47;7.00;99.90
6841;DHT22;3458;53.678;14.080;2023-02-21T07:12:12;6.90;99.90
6841;DHT22;3458;53.678;14.080;2023-02-21T07:14:37;6.90;99.90
6841;DHT22;3458;53.678;14.080;2023-02-21T07:17:03;6.90;99.90
6841;DHT22;3458;53.678;14.080;2023-02-21T07:19:29;6.90;99.90
6841;DHT22;3458;53.678;14.080;2023-02-21T07:21:54;6.90;99.90
6841;DHT22;3458;53.678;14.080;2023-02-21T07:24:20;6.90;99.90
6841;DHT22;3458;53.678;14.080;2023-02-21T07:26:45;7.00;99.90
6841;DHT22;3458;53.678;14.080;2023-02-21T07:29:11;7.00;99.90
6841;DHT22;3458;53.678;14.080;2023-02-21T07:31:36;7.00;99.90
6841;DHT22;3458;53.678;14.080;2023-02-21T07:34:02;7.00;99.90
6841;DHT22;3458;53.678;14.080;2023-02-21T07:36:27;7.10;99.90
6841;DHT22;3458;53.678;14.080;2023-02-21T07:38:53;7.10;99.90
6841;DHT22;3458;53.678;14.080;2023-02-21T07:41:18;7.10;99.90
6841;DHT22;3458;53.678;14.080;2023-02-21T07:43:44;7.10;99.90
6841;DHT22;3458;53.678;14.080;2023-02-21T07:46:11;7.10;99.90
6841;DHT22;3458;53.678;14.080;2023-02-21T07:48:36;7.10;99.90
6841;DHT22;3458;53.678;14.080;2023-02-21T07:51:02;7.10;99.90
6841;DHT22;3458;53.678;14.080;2023-02-21T07:53:27;7.20;99.90
6841;DHT22;3458;53.678;14.080;2023-02-21T07:55:53;7.30;99.90
6841;DHT22;3458;53.678;14.080;2023-02-21T07:58:18;7.40;99.90
6841;DHT22;3458;53.678;14.080;2023-02-21T08:00:44;7.40;99.90
6841;DHT22;3458;53.678;14.080;2023-02-21T08:03:13;7.50;99.90
6841;DHT22;3458;53.678;14.080;2023-02-21T08:05:39;7.50;99.90
6841;DHT22;3458;53.678;14.080;2023-02-21T08:08:09;7.60;99.90
6841;DHT22;3458;53.678;14.080;2023-02-21T08:10:35;7.60;99.90
6841;DHT22;3458;53.678;14.080;2023-02-21T08:13:01;7.70;99.90
6841;DHT22;3458;53.678;14.080;2023-02-21T08:15:26;7.80;99.90
6841;DHT22;3458;53.678;14.080;2023-02-21T08:17:52;7.80;99.90
6841;DHT22;3458;53.678;14.080;2023-02-21T08:20:18;7.90;99.90
6841;DHT22;3458;53.678;14.080;2023-02-21T08:22:43;8.00;99.90
6841;DHT22;3458;53.678;14.080;2023-02-21T08:25:14;8.00;99.90
6841;DHT22;3458;53.678;14.080;2023-02-21T08:27:43;8.10;99.90
6841;DHT22;3458;53.678;14.080;2023-02-21T08:30:11;8.10;99.90
6841;DHT22;3458;53.678;14.080;2023-02-21T08:32:37;8.10;99.90
6841;DHT22;3458;53.678;14.080;2023-02-21T08:35:03;8.10;99.90
6841;DHT22;3458;53.678;14.080;2023-02-21T08:37:31;8.20;99.90
6841;DHT22;3458;53.678;14.080;2023-02-21T08:39:58;8.20;99.90
6841;DHT22;3458;53.678;14.080;2023-02-21T08:42:24;8.20;99.90
6841;DHT22;3458;53.678;14.080;2023-02-21T08:44:50;8.20;99.90
6841;DHT22;3458;53.678;14.080;2023-02-21T08:47:16;8.20;99.90
6841;DHT22;3458;53.678;14.080;2023-02-21T08:49:46;8.30;99.90
6841;DHT22;3458;53.678;14.080;2023-02-21T08:52:13;8.30;99.90
6841;DHT22;3458;53.678;14.080;2023-02-21T08:54:41;8.20;99.90
6841;DHT22;3458;53.678;14.080;2023-02-21T08:57:06;8.30;99.90
6841;DHT22;3458;53.678;14.080;2023-02-21T08:59:32;8.30;99.90
6841;DHT22;3458;53.678;14.080;2023-02-21T09:01:59;8.30;99.90
6841;DHT22;3458;53.678;14.080;2023-02-21T09:04:25;8.30;99.90
6841;DHT22;3458;53.678;14.080;2023-02-21T09:06:54;8.30;99.90
6841;DHT22;3458;53.678;14.080;2023-02-21T09:09:20;8.40;99.90
6841;DHT22;3458;53.678;14.080;2023-02-21T09:11:46;8.40;99.90
6841;DHT22;3458;53.678;14.080;2023-02-21T09:14:14;8.30;99.90
6841;DHT22;3458;53.678;14.080;2023-02-21T09:16:40;8.30;99.90
6841;DHT22;3458;53.678;14.080;2023-02-21T09:19:07;8.30;99.90
6841;DHT22;3458;53.678;14.080;2023-02-21T09:21:33;8.30;99.90
6841;DHT22;3458;53.678;14.080;2023-02-21T09:23:59;8.40;99.90
6841;DHT22;3458;53.678;14.080;2023-02-21T09:26:27;8.40;99.90
6841;DHT22;3458;53.678;14.080;2023-02-21T09:28:56;8.40;99.90
6841;DHT22;3458;53.678;14.080;2023-02-21T09:31:21;8.40;99.90
6841;DHT22;3458;53.678;14.080;2023-02-21T09:33:47;8.30;99.90
6841;DHT22;3458;53.678;14.080;2023-02-21T09:36:13;8.30;99.90
6841;DHT22;3458;53.678;14.080;2023-02-21T09:38:39;8.30;99.90
6841;DHT22;3458;53.678;14.080;2023-02-21T09:41:08;8.30;99.90
6841;DHT22;3458;53.678;14.080;2023-02-21T09:43:41;8.30;99.90
6841;DHT22;3458;53.678;14.080;2023-02-21T09:46:18;8.30;99.90
6841;DHT22;3458;53.678;14.080;2023-02-21T09:48:46;8.40;99.90
6841;DHT22;3458;53.678;14.080;2023-02-21T09:51:13;8.30;99.90
6841;DHT22;3458;53.678;14.080;2023-02-21T09:53:42;8.30;99.90
6841;DHT22;3458;53.678;14.080;2023-02-21T09:56:20;8.30;99.90
6841;DHT22;3458;53.678;14.080;2023-02-21T09:58:46;8.30;99.90
6841;DHT22;3458;53.678;14.080;2023-02-21T10:01:27;8.30;99.90
6841;DHT22;3458;53.678;14.080;2023-02-21T10:04:00;8.30;99.90
6841;DHT22;3458;53.678;14.080;2023-02-21T10:07:01;8.30;99.90
6841;DHT22;3458;53.678;14.080;2023-02-21T10:09:52;8.40;99.90
6841;DHT22;3458;53.678;14.080;2023-02-21T10:12:42;8.30;99.90
6841;DHT22;3458;53.678;14.080;2023-02-21T10:15:28;8.30;99.90
6841;DHT22;3458;53.678;14.080;2023-02-21T10:20:51;8.30;99.90
6841;DHT22;3458;53.678;14.080;2023-02-21T10:23:22;8.30;99.90
6841;DHT22;3458;53.678;14.080;2023-02-21T10:25:53;8.30;99.90
6841;DHT22;3458;53.678;14.080;2023-02-21T10:28:22;8.30;99.90
6841;DHT22;3458;53.678;14.080;2023-02-21T10:30:52;8.30;99.90
6841;DHT22;3458;53.678;14.080;2023-02-21T10:33:19;8.30;99.90
6841;DHT22;3458;53.678;14.080;2023-02-21T10:35:44;8.40;99.90
6841;DHT22;3458;53.678;14.080;2023-02-21T10:38:15;8.40;99.90
6841;DHT22;3458;53.678;14.080;2023-02-21T10:40:56;8.40;99.90
6841;DHT22;3458;53.678;14.080;2023-02-21T10:43:30;8.40;99.90
6841;DHT22;3458;53.678;14.080;2023-02-21T10:45:58;8.40;99.90
6841;DHT22;3458;53.678;14.080;2023-02-21T10:48:29;8.40;99.90
6841;DHT22;3458;53.678;14.080;2023-02-21T10:53:24;8.50;99.90
6841;DHT22;3458;53.678;14.080;2023-02-21T10:58:31;8.50;99.90
6841;DHT22;3458;53.678;14.080;2023-02-21T11:01:10;8.60;99.90
6841;DHT22;3458;53.678;14.080;2023-02-21T11:03:42;8.50;99.90
6841;DHT22;3458;53.678;14.080;2023-02-21T11:06:09;8.50;99.90
6841;DHT22;3458;53.678;14.080;2023-02-21T11:08:45;8.60;99.90
6841;DHT22;3458;53.678;14.080;2023-02-21T11:11:10;8.60;99.90
6841;DHT22;3458;53.678;14.080;2023-02-21T11:13:36;8.50;99.90
6841;DHT22;3458;53.678;14.080;2023-02-21T11:16:15;8.50;99.90
6841;DHT22;3458;53.678;14.080;2023-02-21T11:18:41;8.50;99.90
6841;DHT22;3458;53.678;14.080;2023-02-21T11:21:17;8.60;99.90
6841;DHT22;3458;53.678;14.080;2023-02-21T11:23:46;8.60;99.90
6841;DHT22;3458;53.678;14.080;2023-02-21T11:26:14;8.60;99.90
6841;DHT22;3458;53.678;14.080;2023-02-21T11:28:41;8.70;99.90
6841;DHT22;3458;53.678;14.080;2023-02-21T11:31:14;8.70;99.90
6841;DHT22;3458;53.678;14.080;2023-02-21T11:33:51;8.70;99.90
6841;DHT22;3458;53.678;14.080;2023-02-21T11:36:19;8.70;99.90
6841;DHT22;3458;53.678;14.080;2023-02-21T11:41:44;8.70;99.90
6841;DHT22;3458;53.678;14.080;2023-02-21T11:47:14;8.60;99.90
6841;DHT22;3458;53.678;14.080;2023-02-21T11:50:06;8.60;99.90
6841;DHT22;3458;53.678;14.080;2023-02-21T11:53:05;8.60;99.90
6841;DHT22;3458;53.678;14.080;2023-02-21T11:55:31;8.60;99.90
6841;DHT22;3458;53.678;14.080;2023-02-21T11:58:19;8.60;99.90
6841;DHT22;3458;53.678;14.080;2023-02-21T12:00:59;8.60;99.90
6841;DHT22;3458;53.678;14.080;2023-02-21T12:09:19;8.70;99.90
6841;DHT22;3458;53.678;14.080;2023-02-21T12:23:53;8.60;99.90
6841;DHT22;3458;53.678;14.080;2023-02-21T12:29:35;8.60;99.90
6841;DHT22;3458;53.678;14.080;2023-02-21T12:32:23;8.60;99.90
6841;DHT22;3458;53.678;14.080;2023-02-21T12:40:19;8.50;99.90
6841;DHT22;3458;53.678;14.080;2023-02-21T12:43:10;8.50;99.90
6841;DHT22;3458;53.678;14.080;2023-02-21T12:48:53;8.50;99.90
6841;DHT22;3458;53.678;14.080;2023-02-21T12:51:24;8.60;99.90
6841;DHT22;3458;53.678;14.080;2023-02-21T12:53:55;8.60;99.90
6841;DHT22;3458;53.678;14.080;2023-02-21T12:59:17;8.60;99.90
6841;DHT22;3458;53.678;14.080;2023-02-21T13:02:10;8.60;99.90
6841;DHT22;3458;53.678;14.080;2023-02-21T13:04:55;8.60;99.90
6841;DHT22;3458;53.678;14.080;2023-02-21T13:07:38;8.60;99.90
6841;DHT22;3458;53.678;14.080;2023-02-21T13:10:25;8.60;99.90
6841;DHT22;3458;53.678;14.080;2023-02-21T13:13:20;8.60;99.90
6841;DHT22;3458;53.678;14.080;2023-02-21T13:15:48;8.50;99.90
6841;DHT22;3458;53.678;14.080;2023-02-21T13:18:20;8.50;99.90
6841;DHT22;3458;53.678;14.080;2023-02-21T13:23:24;8.70;99.90
6841;DHT22;3458;53.678;14.080;2023-02-21T13:28:33;8.70;99.90
6841;DHT22;3458;53.678;14.080;2023-02-21T13:31:04;8.70;99.90
6841;DHT22;3458;53.678;14.080;2023-02-21T13:33:43;8.60;99.90
6841;DHT22;3458;53.678;14.080;2023-02-21T13:36:27;8.70;99.90
6841;DHT22;3458;53.678;14.080;2023-02-21T13:39:01;8.70;99.90
6841;DHT22;3458;53.678;14.080;2023-02-21T13:41:32;8.60;99.90
6841;DHT22;3458;53.678;14.080;2023-02-21T13:43:59;8.70;99.90
6841;DHT22;3458;53.678;14.080;2023-02-21T13:52:24;8.70;99.90
6841;DHT22;3458;53.678;14.080;2023-02-21T13:57:48;8.70;99.90
6841;DHT22;3458;53.678;14.080;2023-02-21T14:08:45;8.60;99.90
6841;DHT22;3458;53.678;14.080;2023-02-21T14:11:24;8.60;99.90
6841;DHT22;3458;53.678;14.080;2023-02-21T14:13:55;8.70;99.90
6841;DHT22;3458;53.678;14.080;2023-02-21T14:18:54;8.70;99.90
6841;DHT22;3458;53.678;14.080;2023-02-21T14:24:24;8.70;99.90
6841;DHT22;3458;53.678;14.080;2023-02-21T14:29:41;8.60;99.90
6841;DHT22;3458;53.678;14.080;2023-02-21T14:34:39;8.50;99.90
6841;DHT22;3458;53.678;14.080;2023-02-21T14:39:54;8.60;99.90
6841;DHT22;3458;53.678;14.080;2023-02-21T14:42:42;8.50;99.90
6841;DHT22;3458;53.678;14.080;2023-02-21T14:59:17;8.40;99.90
6841;DHT22;3458;53.678;14.080;2023-02-21T15:05:03;8.40;99.90
6841;DHT22;3458;53.678;14.080;2023-02-21T15:08:17;8.40;99.90
6841;DHT22;3458;53.678;14.080;2023-02-21T15:10:46;8.40;99.90
6841;DHT22;3458;53.678;14.080;2023-02-21T15:13:32;8.40;99.90
6841;DHT22;3458;53.678;14.080;2023-02-21T15:16:06;8.40;99.90
6841;DHT22;3458;53.678;14.080;2023-02-21T15:18:34;8.30;99.90
6841;DHT22;3458;53.678;14.080;2023-02-21T15:21:15;8.30;99.90
6841;DHT22;3458;53.678;14.080;2023-02-21T15:24:00;8.30;99.90
6841;DHT22;3458;53.678;14.080;2023-02-21T15:26:28;8.30;99.90
6841;DHT22;3458;53.678;14.080;2023-02-21T15:29:12;8.30;99.90
6841;DHT22;3458;53.678;14.080;2023-02-21T15:31:47;8.30;99.90
6841;DHT22;3458;53.678;14.080;2023-02-21T15:34:15;8.30;99.90
6841;DHT22;3458;53.678;14.080;2023-02-21T15:36:43;8.30;99.90
6841;DHT22;3458;53.678;14.080;2023-02-21T15:39:25;8.30;99.90
6841;DHT22;3458;53.678;14.080;2023-02-21T15:41:53;8.30;99.90
6841;DHT22;3458;53.678;14.080;2023-02-21T15:44:29;8.30;99.90
6841;DHT22;3458;53.678;14.080;2023-02-21T15:47:01;8.30;99.90
6841;DHT22;3458;53.678;14.080;2023-02-21T15:49:31;8.30;99.90
6841;DHT22;3458;53.678;14.080;2023-02-21T15:52:02;8.30;99.90
6841;DHT22;3458;53.678;14.080;2023-02-21T15:54:30;8.30;99.90
6841;DHT22;3458;53.678;14.080;2023-02-21T15:57:01;8.30;99.90
6841;DHT22;3458;53.678;14.080;2023-02-21T15:59:28;8.30;99.90
6841;DHT22;3458;53.678;14.080;2023-02-21T16:02:21;8.30;99.90
6841;DHT22;3458;53.678;14.080;2023-02-21T16:04:50;8.40;99.90
6841;DHT22;3458;53.678;14.080;2023-02-21T16:07:32;8.30;99.90
6841;DHT22;3458;53.678;14.080;2023-02-21T16:10:04;8.30;99.90
6841;DHT22;3458;53.678;14.080;2023-02-21T16:12:34;8.30;99.90
6841;DHT22;3458;53.678;14.080;2023-02-21T16:15:04;8.30;99.90
6841;DHT22;3458;53.678;14.080;2023-02-21T16:17:33;8.30;99.90
6841;DHT22;3458;53.678;14.080;2023-02-21T16:20:15;8.30;99.90
6841;DHT22;3458;53.678;14.080;2023-02-21T16:22:42;8.30;99.90
6841;DHT22;3458;53.678;14.080;2023-02-21T16:27:41;8.20;99.90
6841;DHT22;3458;53.678;14.080;2023-02-21T16:30:12;8.20;99.90
6841;DHT22;3458;53.678;14.080;2023-02-21T16:32:40;8.20;99.90
6841;DHT22;3458;53.678;14.080;2023-02-21T16:35:10;8.20;99.90
6841;DHT22;3458;53.678;14.080;2023-02-21T16:37:36;8.20;99.90
6841;DHT22;3458;53.678;14.080;2023-02-21T16:40:10;8.20;99.90
6841;DHT22;3458;53.678;14.080;2023-02-21T16:42:36;8.20;99.90
6841;DHT22;3458;53.678;14.080;2023-02-21T16:45:02;8.20;99.90
6841;DHT22;3458;53.678;14.080;2023-02-21T16:47:27;8.20;99.90
6841;DHT22;3458;53.678;14.080;2023-02-21T16:49:53;8.20;99.90
6841;DHT22;3458;53.678;14.080;2023-02-21T16:52:18;8.20;99.90
6841;DHT22;3458;53.678;14.080;2023-02-21T16:54:44;8.20;99.90
6841;DHT22;3458;53.678;14.080;2023-02-21T16:57:10;8.20;99.90
6841;DHT22;3458;53.678;14.080;2023-02-21T16:59:36;8.10;99.90
6841;DHT22;3458;53.678;14.080;2023-02-21T17:02:02;8.10;99.90
6841;DHT22;3458;53.678;14.080;2023-02-21T17:04:29;8.20;99.90
6841;DHT22;3458;53.678;14.080;2023-02-21T17:07:00;8.20;99.90
6841;DHT22;3458;53.678;14.080;2023-02-21T17:09:29;8.20;99.90
6841;DHT22;3458;53.678;14.080;2023-02-21T17:11:58;8.20;99.90
6841;DHT22;3458;53.678;14.080;2023-02-21T17:14:24;8.20;99.90
6841;DHT22;3458;53.678;14.080;2023-02-21T17:16:50;8.20;99.90
6841;DHT22;3458;53.678;14.080;2023-02-21T17:19:17;8.20;99.90
6841;DHT22;3458;53.678;14.080;2023-02-21T17:21:44;8.20;99.90
6841;DHT22;3458;53.678;14.080;2023-02-21T17:24:11;8.20;99.90
6841;DHT22;3458;53.678;14.080;2023-02-21T17:26:37;8.10;99.90
6841;DHT22;3458;53.678;14.080;2023-02-21T17:29:03;8.10;99.90
6841;DHT22;3458;53.678;14.080;2023-02-21T17:31:29;8.20;99.90
6841;DHT22;3458;53.678;14.080;2023-02-21T17:33:55;8.20;99.90
6841;DHT22;3458;53.678;14.080;2023-02-21T17:36:23;8.20;99.90
6841;DHT22;3458;53.678;14.080;2023-02-21T17:38:48;8.20;99.90
6841;DHT22;3458;53.678;14.080;2023-02-21T17:41:14;8.10;99.90
6841;DHT22;3458;53.678;14.080;2023-02-21T17:43:40;8.10;99.90
6841;DHT22;3458;53.678;14.080;2023-02-21T17:46:09;8.10;99.90
6841;DHT22;3458;53.678;14.080;2023-02-21T17:48:35;8.10;99.90
6841;DHT22;3458;53.678;14.080;2023-02-21T17:51:01;8.10;99.90
6841;DHT22;3458;53.678;14.080;2023-02-21T17:53:26;8.10;99.90
6841;DHT22;3458;53.678;14.080;2023-02-21T17:55:56;8.10;99.90
6841;DHT22;3458;53.678;14.080;2023-02-21T17:58:27;8.10;99.90
6841;DHT22;3458;53.678;14.080;2023-02-21T18:00:54;8.00;99.90
6841;DHT22;3458;53.678;14.080;2023-02-21T18:03:21;8.00;99.90
6841;DHT22;3458;53.678;14.080;2023-02-21T18:05:46;8.00;99.90
6841;DHT22;3458;53.678;14.080;2023-02-21T18:08:13;7.90;99.90
6841;DHT22;3458;53.678;14.080;2023-02-21T18:10:38;7.90;99.90
6841;DHT22;3458;53.678;14.080;2023-02-21T18:13:09;7.90;99.90
6841;DHT22;3458;53.678;14.080;2023-02-21T18:15:34;7.90;99.90
6841;DHT22;3458;53.678;14.080;2023-02-21T18:18:00;7.80;99.90
6841;DHT22;3458;53.678;14.080;2023-02-21T18:20:29;7.70;99.90
6841;DHT22;3458;53.678;14.080;2023-02-21T18:22:56;7.80;99.90
6841;DHT22;3458;53.678;14.080;2023-02-21T18:25:21;7.70;99.90
6841;DHT22;3458;53.678;14.080;2023-02-21T18:27:48;7.70;99.90
6841;DHT22;3458;53.678;14.080;2023-02-21T18:30:16;7.60;99.90
6841;DHT22;3458;53.678;14.080;2023-02-21T18:32:42;7.60;99.90
6841;DHT22;3458;53.678;14.080;2023-02-21T18:35:08;7.60;99.90
6841;DHT22;3458;53.678;14.080;2023-02-21T18:37:33;7.60;99.90
6841;DHT22;3458;53.678;14.080;2023-02-21T18:39:59;7.50;99.90
6841;DHT22;3458;53.678;14.080;2023-02-21T18:42:25;7.50;99.90
6841;DHT22;3458;53.678;14.080;2023-02-21T18:44:51;7.50;99.90
6841;DHT22;3458;53.678;14.080;2023-02-21T18:47:16;7.40;99.90
6841;DHT22;3458;53.678;14.080;2023-02-21T18:49:43;7.40;99.90